sensor_id;sensor_type;location;lat;lon;timestamp;P1;P2;P0
46681;PMS5003;34101;53.430;-2.224;2023-05-29T00:00:55;14;12;
46681;PMS5003;34101;53.430;-2.224;2023-05-29T00:03:22;14;11;
46681;PMS5003;34101;53.430;-2.224;2023-05-29T00:05:50;8;7;
46681;PMS5003;34101;53.430;-2.224;2023-05-29T00:08:18;11;8;
46681;PMS5003;34101;53.430;-2.224;2023-05-29T00:10:46;10;8;
46681;PMS5003;34101;53.430;-2.224;2023-05-29T00:13:14;6;6;
46681;PMS5003;34101;53.430;-2.224;2023-05-29T00:15:42;6;6;
46681;PMS5003;34101;53.430;-2.224;2023-05-29T00:18:10;13;7;
46681;PMS5003;34101;53.430;-2.224;2023-05-29T00:20:37;10;7;
46681;PMS5003;34101;53.430;-2.224;2023-05-29T00:23:04;6;6;
46681;PMS5003;34101;53.430;-2.224;2023-05-29T00:25:32;7;6;
46681;PMS5003;34101;53.430;-2.224;2023-05-29T00:27:59;14;9;
46681;PMS5003;34101;53.430;-2.224;2023-05-29T00:30:27;7;7;
46681;PMS5003;34101;53.430;-2.224;2023-05-29T00:32:59;10;7;
46681;PMS5003;34101;53.430;-2.224;2023-05-29T00:35:26;5;5;
46681;PMS5003;34101;53.430;-2.224;2023-05-29T00:37:54;8;6;
46681;PMS5003;34101;53.430;-2.224;2023-05-29T01:42:47;10;6;
46681;PMS5003;34101;53.430;-2.224;2023-05-29T02:56:30;9;9;
46681;PMS5003;34101;53.430;-2.224;2023-05-29T02:59:03;7;6;
46681;PMS5003;34101;53.430;-2.224;2023-05-29T03:01:31;12;7;
46681;PMS5003;34101;53.430;-2.224;2023-05-29T03:03:57;7;6;
46681;PMS5003;34101;53.430;-2.224;2023-05-29T03:06:24;7;6;
46681;PMS5003;34101;53.430;-2.224;2023-05-29T03:08:50;8;7;
46681;PMS5003;34101;53.430;-2.224;2023-05-29T03:14:57;4;4;
46681;PMS5003;34101;53.430;-2.224;2023-05-29T03:17:24;5;4;
46681;PMS5003;34101;53.430;-2.224;2023-05-29T03:19:51;7;7;
46681;PMS5003;34101;53.430;-2.224;2023-05-29T03:22:17;9;6;
46681;PMS5003;34101;53.430;-2.224;2023-05-29T03:24:44;7;6;
46681;PMS5003;34101;53.430;-2.224;2023-05-29T03:27:10;7;7;
46681;PMS5003;34101;53.430;-2.224;2023-05-29T03:29:37;7;7;
46681;PMS5003;34101;53.430;-2.224;2023-05-29T03:32:05;6;6;
46681;PMS5003;34101;53.430;-2.224;2023-05-29T03:34:31;7;7;
46681;PMS5003;34101;53.430;-2.224;2023-05-29T03:36:58;6;6;
46681;PMS5003;34101;53.430;-2.224;2023-05-29T03:39:25;9;7;
46681;PMS5003;34101;53.430;-2.224;2023-05-29T03:41:53;7;7;
46681;PMS5003;34101;53.430;-2.224;2023-05-29T03:44:20;12;9;
46681;PMS5003;34101;53.430;-2.224;2023-05-29T03:46:48;9;6;
46681;PMS5003;34101;53.430;-2.224;2023-05-29T03:49:21;10;8;
46681;PMS5003;34101;53.430;-2.224;2023-05-29T03:51:49;10;8;
46681;PMS5003;34101;53.430;-2.224;2023-05-29T03:54:17;7;6;
46681;PMS5003;34101;53.430;-2.224;2023-05-29T03:56:45;8;6;
46681;PMS5003;34101;53.430;-2.224;2023-05-29T03:59:13;7;5;
46681;PMS5003;34101;53.430;-2.224;2023-05-29T04:01:41;8;7;
46681;PMS5003;34101;53.430;-2.224;2023-05-29T04:04:08;9;7;
46681;PMS5003;34101;53.430;-2.224;2023-05-29T04:06:36;9;7;
46681;PMS5003;34101;53.430;-2.224;2023-05-29T04:09:04;10;9;
46681;PMS5003;34101;53.430;-2.224;2023-05-29T04:11:31;7;5;
46681;PMS5003;34101;53.430;-2.224;2023-05-29T04:13:58;9;9;
46681;PMS5003;34101;53.430;-2.224;2023-05-29T04:16:26;9;7;
46681;PMS5003;34101;53.430;-2.224;2023-05-29T04:18:54;10;6;
46681;PMS5003;34101;53.430;-2.224;2023-05-29T04:21:22;9;7;
46681;PMS5003;34101;53.430;-2.224;2023-05-29T04:23:49;9;8;
46681;PMS5003;34101;53.430;-2.224;2023-05-29T04:26:17;11;9;
46681;PMS5003;34101;53.430;-2.224;2023-05-29T04:28:46;10;9;
46681;PMS5003;34101;53.430;-2.224;2023-05-29T04:31:13;9;7;
46681;PMS5003;34101;53.430;-2.224;2023-05-29T04:33:41;14;10;
46681;PMS5003;34101;53.430;-2.224;2023-05-29T04:36:09;13;10;
46681;PMS5003;34101;53.430;-2.224;2023-05-29T04:38:36;10;8;
46681;PMS5003;34101;53.430;-2.224;2023-05-29T04:41:04;7;7;
46681;PMS5003;34101;53.430;-2.224;2023-05-29T04:43:31;8;8;
46681;PMS5003;34101;53.430;-2.224;2023-05-29T04:45:59;8;8;
46681;PMS5003;34101;53.430;-2.224;2023-05-29T04:48:26;8;7;
46681;PMS5003;34101;53.430;-2.224;2023-05-29T04:50:54;8;8;
46681;PMS5003;34101;53.430;-2.224;2023-05-29T04:53:21;11;10;
46681;PMS5003;34101;53.430;-2.224;2023-05-29T04:55:49;13;10;
46681;PMS5003;34101;53.430;-2.224;2023-05-29T04:58:16;12;11;
46681;PMS5003;34101;53.430;-2.224;2023-05-29T05:00:43;13;10;
46681;PMS5003;34101;53.430;-2.224;2023-05-29T05:03:11;10;10;
46681;PMS5003;34101;53.430;-2.224;2023-05-29T05:05:43;11;10;
46681;PMS5003;34101;53.430;-2.224;2023-05-29T05:08:10;8;8;
46681;PMS5003;34101;53.430;-2.224;2023-05-29T05:10:38;14;11;
46681;PMS5003;34101;53.430;-2.224;2023-05-29T05:13:05;11;11;
46681;PMS5003;34101;53.430;-2.224;2023-05-29T05:15:33;14;10;
46681;PMS5003;34101;53.430;-2.224;2023-05-29T05:18:00;10;10;
46681;PMS5003;34101;53.430;-2.224;2023-05-29T05:20:28;14;13;
46681;PMS5003;34101;53.430;-2.224;2023-05-29T05:22:55;13;11;
46681;PMS5003;34101;53.430;-2.224;2023-05-29T05:25:22;12;12;
46681;PMS5003;34101;53.430;-2.224;2023-05-29T05:27:50;11;11;
46681;PMS5003;34101;53.430;-2.224;2023-05-29T05:30:17;12;11;
46681;PMS5003;34101;53.430;-2.224;2023-05-29T05:32:45;12;12;
46681;PMS5003;34101;53.430;-2.224;2023-05-29T05:35:13;11;11;
46681;PMS5003;34101;53.430;-2.224;2023-05-29T05:37:40;11;11;
46681;PMS5003;34101;53.430;-2.224;2023-05-29T05:40:08;12;12;
46681;PMS5003;34101;53.430;-2.224;2023-05-29T05:42:36;10;10;
46681;PMS5003;34101;53.430;-2.224;2023-05-29T05:45:04;8;8;
46681;PMS5003;34101;53.430;-2.224;2023-05-29T05:47:32;8;8;
46681;PMS5003;34101;53.430;-2.224;2023-05-29T05:49:59;9;9;
46681;PMS5003;34101;53.430;-2.224;2023-05-29T05:52:27;12;8;
46681;PMS5003;34101;53.430;-2.224;2023-05-29T05:54:54;7;7;
46681;PMS5003;34101;53.430;-2.224;2023-05-29T05:57:22;9;9;
46681;PMS5003;34101;53.430;-2.224;2023-05-29T05:59:55;10;9;
46681;PMS5003;34101;53.430;-2.224;2023-05-29T06:02:23;11;8;
46681;PMS5003;34101;53.430;-2.224;2023-05-29T06:04:50;8;7;
46681;PMS5003;34101;53.430;-2.224;2023-05-29T06:07:18;8;8;
46681;PMS5003;34101;53.430;-2.224;2023-05-29T06:09:45;7;7;
46681;PMS5003;34101;53.430;-2.224;2023-05-29T06:12:13;8;7;
46681;PMS5003;34101;53.430;-2.224;2023-05-29T06:14:40;6;6;
46681;PMS5003;34101;53.430;-2.224;2023-05-29T06:17:08;8;8;
46681;PMS5003;34101;53.430;-2.224;2023-05-29T06:19:35;7;7;
46681;PMS5003;34101;53.430;-2.224;2023-05-29T06:22:02;8;6;
46681;PMS5003;34101;53.430;-2.224;2023-05-29T06:24:30;8;8;
46681;PMS5003;34101;53.430;-2.224;2023-05-29T06:26:57;6;6;
46681;PMS5003;34101;53.430;-2.224;2023-05-29T06:29:25;5;5;
46681;PMS5003;34101;53.430;-2.224;2023-05-29T06:31:52;4;4;
46681;PMS5003;34101;53.430;-2.224;2023-05-29T06:34:20;4;4;
46681;PMS5003;34101;53.430;-2.224;2023-05-29T06:36:47;9;6;
46681;PMS5003;34101;53.430;-2.224;2023-05-29T06:39:15;4;4;
46681;PMS5003;34101;53.430;-2.224;2023-05-29T06:41:42;6;6;
46681;PMS5003;34101;53.430;-2.224;2023-05-29T06:44:09;4;4;
46681;PMS5003;34101;53.430;-2.224;2023-05-29T06:46:37;4;4;
46681;PMS5003;34101;53.430;-2.224;2023-05-29T06:49:05;5;5;
46681;PMS5003;34101;53.430;-2.224;2023-05-29T06:51:33;4;4;
46681;PMS5003;34101;53.430;-2.224;2023-05-29T06:54:00;5;5;
46681;PMS5003;34101;53.430;-2.224;2023-05-29T06:56:27;4;3;
46681;PMS5003;34101;53.430;-2.224;2023-05-29T06:58:55;5;4;
46681;PMS5003;34101;53.430;-2.224;2023-05-29T07:01:23;4;4;
46681;PMS5003;34101;53.430;-2.224;2023-05-29T07:03:51;3;3;
46681;PMS5003;34101;53.430;-2.224;2023-05-29T07:06:19;4;3;
46681;PMS5003;34101;53.430;-2.224;2023-05-29T07:08:47;3;3;
46681;PMS5003;34101;53.430;-2.224;2023-05-29T07:11:14;3;2;
46681;PMS5003;34101;53.430;-2.224;2023-05-29T07:13:41;5;3;
46681;PMS5003;34101;53.430;-2.224;2023-05-29T07:16:09;4;2;
46681;PMS5003;34101;53.430;-2.224;2023-05-29T07:18:37;5;2;
46681;PMS5003;34101;53.430;-2.224;2023-05-29T07:21:05;2;2;
46681;PMS5003;34101;53.430;-2.224;2023-05-29T07:23:32;1;1;
46681;PMS5003;34101;53.430;-2.224;2023-05-29T07:25:59;7;2;
46681;PMS5003;34101;53.430;-2.224;2023-05-29T07:28:27;3;1;
46681;PMS5003;34101;53.430;-2.224;2023-05-29T07:30:54;4;2;
46681;PMS5003;34101;53.430;-2.224;2023-05-29T07:33:22;3;3;
46681;PMS5003;34101;53.430;-2.224;2023-05-29T07:35:49;3;3;
46681;PMS5003;34101;53.430;-2.224;2023-05-29T07:38:17;5;3;
46681;PMS5003;34101;53.430;-2.224;2023-05-29T07:40:44;2;2;
46681;PMS5003;34101;53.430;-2.224;2023-05-29T07:43:12;4;3;
46681;PMS5003;34101;53.430;-2.224;2023-05-29T07:45:39;2;2;
46681;PMS5003;34101;53.430;-2.224;2023-05-29T07:48:06;3;3;
46681;PMS5003;34101;53.430;-2.224;2023-05-29T07:50:34;3;1;
46681;PMS5003;34101;53.430;-2.224;2023-05-29T07:53:02;1;1;
46681;PMS5003;34101;53.430;-2.224;2023-05-29T07:55:29;3;3;
46681;PMS5003;34101;53.430;-2.224;2023-05-29T07:57:57;1;1;
46681;PMS5003;34101;53.430;-2.224;2023-05-29T08:00:24;2;2;
46681;PMS5003;34101;53.430;-2.224;2023-05-29T08:02:52;1;1;
46681;PMS5003;34101;53.430;-2.224;2023-05-29T08:05:19;2;2;
46681;PMS5003;34101;53.430;-2.224;2023-05-29T08:07:52;2;2;
46681;PMS5003;34101;53.430;-2.224;2023-05-29T08:10:19;1;1;
46681;PMS5003;34101;53.430;-2.224;2023-05-29T08:12:47;3;2;
46681;PMS5003;34101;53.430;-2.224;2023-05-29T08:15:14;3;3;
46681;PMS5003;34101;53.430;-2.224;2023-05-29T08:17:42;3;3;
46681;PMS5003;34101;53.430;-2.224;2023-05-29T08:20:10;3;3;
46681;PMS5003;34101;53.430;-2.224;2023-05-29T08:22:38;3;3;
46681;PMS5003;34101;53.430;-2.224;2023-05-29T08:25:05;2;2;
46681;PMS5003;34101;53.430;-2.224;2023-05-29T08:27:33;2;2;
46681;PMS5003;34101;53.430;-2.224;2023-05-29T08:30:01;2;2;
46681;PMS5003;34101;53.430;-2.224;2023-05-29T08:32:29;4;3;
46681;PMS5003;34101;53.430;-2.224;2023-05-29T08:34:56;3;3;
46681;PMS5003;34101;53.430;-2.224;2023-05-29T08:37:24;1;1;
46681;PMS5003;34101;53.430;-2.224;2023-05-29T08:39:51;3;3;
46681;PMS5003;34101;53.430;-2.224;2023-05-29T08:42:20;3;3;
46681;PMS5003;34101;53.430;-2.224;2023-05-29T08:44:52;3;1;
46681;PMS5003;34101;53.430;-2.224;2023-05-29T08:47:23;2;2;
46681;PMS5003;34101;53.430;-2.224;2023-05-29T08:49:53;4;3;
46681;PMS5003;34101;53.430;-2.224;2023-05-29T08:52:22;2;2;
46681;PMS5003;34101;53.430;-2.224;2023-05-29T08:54:50;3;3;
46681;PMS5003;34101;53.430;-2.224;2023-05-29T08:57:19;2;2;
46681;PMS5003;34101;53.430;-2.224;2023-05-29T08:59:51;2;2;
46681;PMS5003;34101;53.430;-2.224;2023-05-29T09:02:19;5;4;
46681;PMS5003;34101;53.430;-2.224;2023-05-29T09:04:47;4;4;
46681;PMS5003;34101;53.430;-2.224;2023-05-29T09:07:15;4;4;
46681;PMS5003;34101;53.430;-2.224;2023-05-29T09:09:43;4;3;
46681;PMS5003;34101;53.430;-2.224;2023-05-29T09:12:12;2;2;
46681;PMS5003;34101;53.430;-2.224;2023-05-29T09:14:45;4;1;
46681;PMS5003;34101;53.430;-2.224;2023-05-29T09:17:12;4;3;
46681;PMS5003;34101;53.430;-2.224;2023-05-29T09:19:40;2;2;
46681;PMS5003;34101;53.430;-2.224;2023-05-29T09:22:09;3;1;
46681;PMS5003;34101;53.430;-2.224;2023-05-29T09:24:38;3;3;
46681;PMS5003;34101;53.430;-2.224;2023-05-29T09:27:06;4;4;
46681;PMS5003;34101;53.430;-2.224;2023-05-29T09:29:37;4;4;
46681;PMS5003;34101;53.430;-2.224;2023-05-29T09:32:06;3;3;
46681;PMS5003;34101;53.430;-2.224;2023-05-29T09:34:35;7;2;
46681;PMS5003;34101;53.430;-2.224;2023-05-29T09:37:04;4;4;
46681;PMS5003;34101;53.430;-2.224;2023-05-29T09:39:33;4;4;
46681;PMS5003;34101;53.430;-2.224;2023-05-29T09:42:10;2;2;
46681;PMS5003;34101;53.430;-2.224;2023-05-29T09:44:39;3;3;
46681;PMS5003;34101;53.430;-2.224;2023-05-29T09:47:07;6;4;
46681;PMS5003;34101;53.430;-2.224;2023-05-29T09:49:35;6;4;
46681;PMS5003;34101;53.430;-2.224;2023-05-29T09:52:08;2;2;
46681;PMS5003;34101;53.430;-2.224;2023-05-29T09:54:37;3;3;
46681;PMS5003;34101;53.430;-2.224;2023-05-29T09:57:05;4;4;
46681;PMS5003;34101;53.430;-2.224;2023-05-29T09:59:36;2;2;
46681;PMS5003;34101;53.430;-2.224;2023-05-29T10:02:04;5;4;
46681;PMS5003;34101;53.430;-2.224;2023-05-29T10:04:31;4;3;
46681;PMS5003;34101;53.430;-2.224;2023-05-29T10:07:00;5;4;
46681;PMS5003;34101;53.430;-2.224;2023-05-29T10:09:35;2;2;
46681;PMS5003;34101;53.430;-2.224;2023-05-29T10:12:08;1;1;
46681;PMS5003;34101;53.430;-2.224;2023-05-29T10:14:38;4;3;
46681;PMS5003;34101;53.430;-2.224;2023-05-29T10:17:08;3;3;
46681;PMS5003;34101;53.430;-2.224;2023-05-29T10:19:38;2;2;
46681;PMS5003;34101;53.430;-2.224;2023-05-29T10:22:07;4;2;
46681;PMS5003;34101;53.430;-2.224;2023-05-29T10:24:35;4;2;
46681;PMS5003;34101;53.430;-2.224;2023-05-29T10:27:05;3;3;
46681;PMS5003;34101;53.430;-2.224;2023-05-29T10:29:34;3;3;
46681;PMS5003;34101;53.430;-2.224;2023-05-29T10:32:15;3;2;
46681;PMS5003;34101;53.430;-2.224;2023-05-29T10:34:50;1;1;
46681;PMS5003;34101;53.430;-2.224;2023-05-29T10:37:29;3;3;
46681;PMS5003;34101;53.430;-2.224;2023-05-29T10:40:03;2;2;
46681;PMS5003;34101;53.430;-2.224;2023-05-29T10:42:41;3;3;
46681;PMS5003;34101;53.430;-2.224;2023-05-29T10:45:10;2;1;
46681;PMS5003;34101;53.430;-2.224;2023-05-29T10:48:56;5;5;
46681;PMS5003;34101;53.430;-2.224;2023-05-29T10:51:25;2;2;
46681;PMS5003;34101;53.430;-2.224;2023-05-29T10:53:55;4;4;
46681;PMS5003;34101;53.430;-2.224;2023-05-29T10:56:23;6;4;
46681;PMS5003;34101;53.430;-2.224;2023-05-29T10:58:58;5;4;
46681;PMS5003;34101;53.430;-2.224;2023-05-29T11:01:27;4;4;
46681;PMS5003;34101;53.430;-2.224;2023-05-29T11:04:30;7;5;
46681;PMS5003;34101;53.430;-2.224;2023-05-29T11:06:57;5;3;
46681;PMS5003;34101;53.430;-2.224;2023-05-29T11:09:26;6;4;
46681;PMS5003;34101;53.430;-2.224;2023-05-29T11:12:27;6;4;
46681;PMS5003;34101;53.430;-2.224;2023-05-29T11:14:55;6;5;
46681;PMS5003;34101;53.430;-2.224;2023-05-29T11:17:32;4;4;
46681;PMS5003;34101;53.430;-2.224;2023-05-29T11:20:16;5;4;
46681;PMS5003;34101;53.430;-2.224;2023-05-29T11:23:00;7;4;
46681;PMS5003;34101;53.430;-2.224;2023-05-29T11:25:32;6;4;
46681;PMS5003;34101;53.430;-2.224;2023-05-29T11:28:01;3;3;
46681;PMS5003;34101;53.430;-2.224;2023-05-29T11:30:30;2;2;
46681;PMS5003;34101;53.430;-2.224;2023-05-29T11:32:58;4;4;
46681;PMS5003;34101;53.430;-2.224;2023-05-29T11:35:31;4;4;
46681;PMS5003;34101;53.430;-2.224;2023-05-29T11:38:06;6;6;
46681;PMS5003;34101;53.430;-2.224;2023-05-29T11:40:35;4;4;
46681;PMS5003;34101;53.430;-2.224;2023-05-29T11:43:03;4;4;
46681;PMS5003;34101;53.430;-2.224;2023-05-29T11:45:32;3;3;
46681;PMS5003;34101;53.430;-2.224;2023-05-29T11:48:00;6;5;
46681;PMS5003;34101;53.430;-2.224;2023-05-29T11:50:29;5;4;
46681;PMS5003;34101;53.430;-2.224;2023-05-29T11:52:58;4;4;
46681;PMS5003;34101;53.430;-2.224;2023-05-29T11:55:27;6;4;
46681;PMS5003;34101;53.430;-2.224;2023-05-29T11:57:56;4;4;
46681;PMS5003;34101;53.430;-2.224;2023-05-29T12:00:28;4;4;
46681;PMS5003;34101;53.430;-2.224;2023-05-29T12:02:58;6;4;
46681;PMS5003;34101;53.430;-2.224;2023-05-29T12:05:26;5;4;
46681;PMS5003;34101;53.430;-2.224;2023-05-29T12:07:54;6;3;
46681;PMS5003;34101;53.430;-2.224;2023-05-29T12:10:22;5;3;
46681;PMS5003;34101;53.430;-2.224;2023-05-29T12:12:51;4;4;
46681;PMS5003;34101;53.430;-2.224;2023-05-29T12:15:20;7;5;
46681;PMS5003;34101;53.430;-2.224;2023-05-29T12:17:48;16;16;
46681;PMS5003;34101;53.430;-2.224;2023-05-29T12:20:17;6;6;
46681;PMS5003;34101;53.430;-2.224;2023-05-29T12:22:51;6;5;
46681;PMS5003;34101;53.430;-2.224;2023-05-29T12:25:19;4;4;
46681;PMS5003;34101;53.430;-2.224;2023-05-29T12:27:47;4;4;
46681;PMS5003;34101;53.430;-2.224;2023-05-29T12:30:19;6;3;
46681;PMS5003;34101;53.430;-2.224;2023-05-29T12:32:48;3;3;
46681;PMS5003;34101;53.430;-2.224;2023-05-29T12:35:17;4;4;
46681;PMS5003;34101;53.430;-2.224;2023-05-29T12:37:45;3;2;
46681;PMS5003;34101;53.430;-2.224;2023-05-29T12:40:14;5;5;
46681;PMS5003;34101;53.430;-2.224;2023-05-29T12:42:42;3;3;
46681;PMS5003;34101;53.430;-2.224;2023-05-29T12:45:10;4;4;
46681;PMS5003;34101;53.430;-2.224;2023-05-29T12:47:44;4;4;
46681;PMS5003;34101;53.430;-2.224;2023-05-29T12:50:21;3;3;
46681;PMS5003;34101;53.430;-2.224;2023-05-29T12:52:54;4;4;
46681;PMS5003;34101;53.430;-2.224;2023-05-29T12:55:24;3;3;
46681;PMS5003;34101;53.430;-2.224;2023-05-29T12:57:53;5;5;
46681;PMS5003;34101;53.430;-2.224;2023-05-29T13:00:21;4;4;
46681;PMS5003;34101;53.430;-2.224;2023-05-29T13:02:50;3;3;
46681;PMS5003;34101;53.430;-2.224;2023-05-29T13:05:18;4;4;
46681;PMS5003;34101;53.430;-2.224;2023-05-29T13:07:46;5;5;
46681;PMS5003;34101;53.430;-2.224;2023-05-29T13:10:15;5;5;
46681;PMS5003;34101;53.430;-2.224;2023-05-29T13:12:43;2;2;
46681;PMS5003;34101;53.430;-2.224;2023-05-29T13:15:11;4;4;
46681;PMS5003;34101;53.430;-2.224;2023-05-29T13:17:40;4;4;
46681;PMS5003;34101;53.430;-2.224;2023-05-29T13:20:08;5;5;
46681;PMS5003;34101;53.430;-2.224;2023-05-29T13:22:37;3;3;
46681;PMS5003;34101;53.430;-2.224;2023-05-29T13:25:06;4;4;
46681;PMS5003;34101;53.430;-2.224;2023-05-29T13:27:35;5;4;
46681;PMS5003;34101;53.430;-2.224;2023-05-29T13:30:04;5;5;
46681;PMS5003;34101;53.430;-2.224;2023-05-29T13:32:33;2;2;
46681;PMS5003;34101;53.430;-2.224;2023-05-29T13:35:00;4;3;
46681;PMS5003;34101;53.430;-2.224;2023-05-29T13:37:33;3;3;
46681;PMS5003;34101;53.430;-2.224;2023-05-29T13:40:02;5;5;
46681;PMS5003;34101;53.430;-2.224;2023-05-29T13:42:30;3;2;
46681;PMS5003;34101;53.430;-2.224;2023-05-29T13:44:58;5;3;
46681;PMS5003;34101;53.430;-2.224;2023-05-29T13:47:25;3;3;
46681;PMS5003;34101;53.430;-2.224;2023-05-29T13:49:53;4;4;
46681;PMS5003;34101;53.430;-2.224;2023-05-29T13:52:20;6;5;
46681;PMS5003;34101;53.430;-2.224;2023-05-29T13:54:47;5;5;
46681;PMS5003;34101;53.430;-2.224;2023-05-29T13:57:15;5;5;
46681;PMS5003;34101;53.430;-2.224;2023-05-29T13:59:42;3;3;
46681;PMS5003;34101;53.430;-2.224;2023-05-29T14:02:10;9;8;
46681;PMS5003;34101;53.430;-2.224;2023-05-29T14:04:38;5;4;
46681;PMS5003;34101;53.430;-2.224;2023-05-29T14:07:06;4;3;
46681;PMS5003;34101;53.430;-2.224;2023-05-29T14:09:34;5;4;
46681;PMS5003;34101;53.430;-2.224;2023-05-29T14:12:02;5;5;
46681;PMS5003;34101;53.430;-2.224;2023-05-29T14:14:30;7;5;
46681;PMS5003;34101;53.430;-2.224;2023-05-29T14:16:59;4;4;
46681;PMS5003;34101;53.430;-2.224;2023-05-29T14:19:26;5;5;
46681;PMS5003;34101;53.430;-2.224;2023-05-29T14:21:54;5;5;
46681;PMS5003;34101;53.430;-2.224;2023-05-29T14:24:21;3;3;
46681;PMS5003;34101;53.430;-2.224;2023-05-29T14:26:49;2;2;
46681;PMS5003;34101;53.430;-2.224;2023-05-29T14:29:16;6;4;
46681;PMS5003;34101;53.430;-2.224;2023-05-29T14:31:44;5;4;
46681;PMS5003;34101;53.430;-2.224;2023-05-29T14:34:11;6;4;
46681;PMS5003;34101;53.430;-2.224;2023-05-29T14:36:39;6;5;
46681;PMS5003;34101;53.430;-2.224;2023-05-29T14:39:06;5;4;
46681;PMS5003;34101;53.430;-2.224;2023-05-29T14:41:34;7;4;
46681;PMS5003;34101;53.430;-2.224;2023-05-29T14:44:02;5;5;
46681;PMS5003;34101;53.430;-2.224;2023-05-29T14:46:29;3;3;
46681;PMS5003;34101;53.430;-2.224;2023-05-29T14:48:57;6;4;
46681;PMS5003;34101;53.430;-2.224;2023-05-29T14:51:25;4;3;
46681;PMS5003;34101;53.430;-2.224;2023-05-29T14:53:53;6;5;
46681;PMS5003;34101;53.430;-2.224;2023-05-29T14:56:21;4;3;
46681;PMS5003;34101;53.430;-2.224;2023-05-29T14:58:48;5;4;
46681;PMS5003;34101;53.430;-2.224;2023-05-29T15:01:16;4;4;
46681;PMS5003;34101;53.430;-2.224;2023-05-29T15:03:44;6;5;
46681;PMS5003;34101;53.430;-2.224;2023-05-29T15:06:11;3;3;
46681;PMS5003;34101;53.430;-2.224;2023-05-29T15:08:39;7;4;
46681;PMS5003;34101;53.430;-2.224;2023-05-29T15:11:07;2;2;
46681;PMS5003;34101;53.430;-2.224;2023-05-29T15:13:35;4;4;
46681;PMS5003;34101;53.430;-2.224;2023-05-29T15:16:04;4;4;
46681;PMS5003;34101;53.430;-2.224;2023-05-29T15:18:32;3;3;
46681;PMS5003;34101;53.430;-2.224;2023-05-29T15:21:00;4;4;
46681;PMS5003;34101;53.430;-2.224;2023-05-29T15:23:28;4;4;
46681;PMS5003;34101;53.430;-2.224;2023-05-29T15:25:55;3;3;
46681;PMS5003;34101;53.430;-2.224;2023-05-29T15:28:23;2;2;
46681;PMS5003;34101;53.430;-2.224;2023-05-29T15:30:50;4;4;
46681;PMS5003;34101;53.430;-2.224;2023-05-29T15:33:18;5;4;
46681;PMS5003;34101;53.430;-2.224;2023-05-29T15:35:46;6;4;
46681;PMS5003;34101;53.430;-2.224;2023-05-29T15:38:15;4;4;
46681;PMS5003;34101;53.430;-2.224;2023-05-29T15:40:43;8;6;
46681;PMS5003;34101;53.430;-2.224;2023-05-29T15:43:11;3;3;
46681;PMS5003;34101;53.430;-2.224;2023-05-29T15:45:38;4;4;
46681;PMS5003;34101;53.430;-2.224;2023-05-29T15:48:06;3;3;
46681;PMS5003;34101;53.430;-2.224;2023-05-29T15:50:33;5;3;
46681;PMS5003;34101;53.430;-2.224;2023-05-29T15:53:06;5;3;
46681;PMS5003;34101;53.430;-2.224;2023-05-29T15:55:33;3;3;
46681;PMS5003;34101;53.430;-2.224;2023-05-29T15:58:01;3;3;
46681;PMS5003;34101;53.430;-2.224;2023-05-29T16:00:28;3;3;
46681;PMS5003;34101;53.430;-2.224;2023-05-29T16:02:55;3;3;
46681;PMS5003;34101;53.430;-2.224;2023-05-29T16:05:23;4;4;
46681;PMS5003;34101;53.430;-2.224;2023-05-29T16:07:50;3;3;
46681;PMS5003;34101;53.430;-2.224;2023-05-29T16:10:18;8;5;
46681;PMS5003;34101;53.430;-2.224;2023-05-29T16:12:46;3;3;
46681;PMS5003;34101;53.430;-2.224;2023-05-29T16:15:14;3;2;
46681;PMS5003;34101;53.430;-2.224;2023-05-29T16:17:43;4;4;
46681;PMS5003;34101;53.430;-2.224;2023-05-29T16:20:10;2;2;
46681;PMS5003;34101;53.430;-2.224;2023-05-29T16:22:39;1;1;
46681;PMS5003;34101;53.430;-2.224;2023-05-29T16:25:06;4;2;
46681;PMS5003;34101;53.430;-2.224;2023-05-29T16:27:34;3;3;
46681;PMS5003;34101;53.430;-2.224;2023-05-29T16:30:02;3;3;
46681;PMS5003;34101;53.430;-2.224;2023-05-29T16:32:30;5;5;
46681;PMS5003;34101;53.430;-2.224;2023-05-29T16:34:57;6;5;
46681;PMS5003;34101;53.430;-2.224;2023-05-29T16:37:25;5;4;
46681;PMS5003;34101;53.430;-2.224;2023-05-29T16:39:53;4;4;
46681;PMS5003;34101;53.430;-2.224;2023-05-29T16:42:21;4;3;
46681;PMS5003;34101;53.430;-2.224;2023-05-29T16:44:49;4;4;
46681;PMS5003;34101;53.430;-2.224;2023-05-29T16:47:16;2;2;
46681;PMS5003;34101;53.430;-2.224;2023-05-29T16:49:44;8;5;
46681;PMS5003;34101;53.430;-2.224;2023-05-29T16:52:11;5;4;
46681;PMS5003;34101;53.430;-2.224;2023-05-29T16:54:44;4;4;
46681;PMS5003;34101;53.430;-2.224;2023-05-29T16:57:12;3;3;
46681;PMS5003;34101;53.430;-2.224;2023-05-29T16:59:39;8;6;
46681;PMS5003;34101;53.430;-2.224;2023-05-29T17:02:07;6;4;
46681;PMS5003;34101;53.430;-2.224;2023-05-29T17:04:35;5;4;
46681;PMS5003;34101;53.430;-2.224;2023-05-29T17:07:04;3;3;
46681;PMS5003;34101;53.430;-2.224;2023-05-29T17:09:31;1;1;
46681;PMS5003;34101;53.430;-2.224;2023-05-29T17:11:59;4;4;
46681;PMS5003;34101;53.430;-2.224;2023-05-29T17:14:27;9;9;
46681;PMS5003;34101;53.430;-2.224;2023-05-29T17:16:54;7;4;
46681;PMS5003;34101;53.430;-2.224;2023-05-29T17:19:22;4;4;
46681;PMS5003;34101;53.430;-2.224;2023-05-29T17:21:49;5;5;
46681;PMS5003;34101;53.430;-2.224;2023-05-29T17:24:16;6;5;
46681;PMS5003;34101;53.430;-2.224;2023-05-29T17:26:44;6;4;
46681;PMS5003;34101;53.430;-2.224;2023-05-29T17:29:11;5;3;
46681;PMS5003;34101;53.430;-2.224;2023-05-29T17:31:39;4;4;
46681;PMS5003;34101;53.430;-2.224;2023-05-29T17:34:06;4;4;
46681;PMS5003;34101;53.430;-2.224;2023-05-29T17:36:34;6;5;
46681;PMS5003;34101;53.430;-2.224;2023-05-29T17:39:01;5;4;
46681;PMS5003;34101;53.430;-2.224;2023-05-29T17:41:29;4;4;
46681;PMS5003;34101;53.430;-2.224;2023-05-29T17:43:56;5;5;
46681;PMS5003;34101;53.430;-2.224;2023-05-29T17:46:23;5;5;
46681;PMS5003;34101;53.430;-2.224;2023-05-29T17:48:51;5;4;
46681;PMS5003;34101;53.430;-2.224;2023-05-29T17:51:18;3;3;
46681;PMS5003;34101;53.430;-2.224;2023-05-29T17:53:46;3;3;
46681;PMS5003;34101;53.430;-2.224;2023-05-29T17:56:13;5;5;
46681;PMS5003;34101;53.430;-2.224;2023-05-29T17:58:41;5;3;
46681;PMS5003;34101;53.430;-2.224;2023-05-29T18:01:08;4;4;
46681;PMS5003;34101;53.430;-2.224;2023-05-29T18:03:36;4;4;
46681;PMS5003;34101;53.430;-2.224;2023-05-29T18:06:09;8;5;
46681;PMS5003;34101;53.430;-2.224;2023-05-29T18:08:37;5;5;
46681;PMS5003;34101;53.430;-2.224;2023-05-29T18:11:05;4;4;
46681;PMS5003;34101;53.430;-2.224;2023-05-29T18:13:32;5;4;
46681;PMS5003;34101;53.430;-2.224;2023-05-29T18:16:00;4;3;
46681;PMS5003;34101;53.430;-2.224;2023-05-29T18:18:27;3;3;
46681;PMS5003;34101;53.430;-2.224;2023-05-29T18:20:55;6;3;
46681;PMS5003;34101;53.430;-2.224;2023-05-29T18:23:22;6;5;
46681;PMS5003;34101;53.430;-2.224;2023-05-29T18:25:50;5;3;
46681;PMS5003;34101;53.430;-2.224;2023-05-29T18:28:17;5;4;
46681;PMS5003;34101;53.430;-2.224;2023-05-29T18:30:45;6;5;
46681;PMS5003;34101;53.430;-2.224;2023-05-29T18:33:13;7;4;
46681;PMS5003;34101;53.430;-2.224;2023-05-29T18:35:40;7;4;
46681;PMS5003;34101;53.430;-2.224;2023-05-29T18:38:08;3;3;
46681;PMS5003;34101;53.430;-2.224;2023-05-29T18:40:35;5;5;
46681;PMS5003;34101;53.430;-2.224;2023-05-29T18:43:03;4;4;
46681;PMS5003;34101;53.430;-2.224;2023-05-29T18:45:30;9;6;
46681;PMS5003;34101;53.430;-2.224;2023-05-29T18:47:58;7;5;
46681;PMS5003;34101;53.430;-2.224;2023-05-29T18:50:25;9;6;
46681;PMS5003;34101;53.430;-2.224;2023-05-29T18:52:53;6;6;
46681;PMS5003;34101;53.430;-2.224;2023-05-29T18:55:20;6;5;
46681;PMS5003;34101;53.430;-2.224;2023-05-29T18:57:48;6;4;